sensor_id;sensor_type;location;lat;lon;timestamp;P1;durP1;ratioP1;P2;durP2;ratioP2
13263;SDS011;6700;51.988;7.646;2023-06-05T00:00:25;3.67;;;2.60;;
13263;SDS011;6700;51.988;7.646;2023-06-05T00:02:52;5.20;;;3.10;;
13263;SDS011;6700;51.988;7.646;2023-06-05T00:05:19;5.33;;;3.40;;
13263;SDS011;6700;51.988;7.646;2023-06-05T00:07:46;3.90;;;3.30;;
13263;SDS011;6700;51.988;7.646;2023-06-05T00:10:13;5.10;;;3.03;;
13263;SDS011;6700;51.988;7.646;2023-06-05T00:12:40;3.63;;;3.03;;
13263;SDS011;6700;51.988;7.646;2023-06-05T00:15:07;4.00;;;3.13;;
13263;SDS011;6700;51.988;7.646;2023-06-05T00:17:35;7.70;;;3.50;;
13263;SDS011;6700;51.988;7.646;2023-06-05T00:20:03;4.03;;;3.07;;
13263;SDS011;6700;51.988;7.646;2023-06-05T00:22:36;4.67;;;3.37;;
13263;SDS011;6700;51.988;7.646;2023-06-05T00:25:04;7.53;;;3.50;;
13263;SDS011;6700;51.988;7.646;2023-06-05T00:27:31;7.37;;;3.97;;
13263;SDS011;6700;51.988;7.646;2023-06-05T00:29:58;4.00;;;3.13;;
13263;SDS011;6700;51.988;7.646;2023-06-05T00:32:24;4.27;;;3.07;;
13263;SDS011;6700;51.988;7.646;2023-06-05T00:34:51;5.50;;;3.80;;
13263;SDS011;6700;51.988;7.646;2023-06-05T00:37:19;9.33;;;3.47;;
13263;SDS011;6700;51.988;7.646;2023-06-05T00:39:46;6.73;;;4.00;;
13263;SDS011;6700;51.988;7.646;2023-06-05T00:42:13;3.93;;;3.30;;
13263;SDS011;6700;51.988;7.646;2023-06-05T00:44:40;4.50;;;3.60;;
13263;SDS011;6700;51.988;7.646;2023-06-05T00:47:07;7.47;;;4.00;;
13263;SDS011;6700;51.988;7.646;2023-06-05T00:49:34;5.27;;;4.50;;
13263;SDS011;6700;51.988;7.646;2023-06-05T00:52:01;5.97;;;4.13;;
13263;SDS011;6700;51.988;7.646;2023-06-05T00:54:28;9.33;;;4.17;;
13263;SDS011;6700;51.988;7.646;2023-06-05T00:56:56;5.37;;;4.17;;
13263;SDS011;6700;51.988;7.646;2023-06-05T00:59:22;6.20;;;4.10;;
13263;SDS011;6700;51.988;7.646;2023-06-05T01:01:49;6.37;;;3.73;;
13263;SDS011;6700;51.988;7.646;2023-06-05T01:04:19;4.40;;;4.00;;
13263;SDS011;6700;51.988;7.646;2023-06-05T01:06:46;5.03;;;3.70;;
13263;SDS011;6700;51.988;7.646;2023-06-05T01:09:13;4.87;;;4.30;;
13263;SDS011;6700;51.988;7.646;2023-06-05T01:11:50;6.97;;;4.23;;
13263;SDS011;6700;51.988;7.646;2023-06-05T01:14:27;7.20;;;4.70;;
13263;SDS011;6700;51.988;7.646;2023-06-05T01:16:57;5.97;;;4.60;;
13263;SDS011;6700;51.988;7.646;2023-06-05T01:19:27;5.17;;;4.67;;
13263;SDS011;6700;51.988;7.646;2023-06-05T01:21:59;5.63;;;4.67;;
13263;SDS011;6700;51.988;7.646;2023-06-05T01:24:26;6.20;;;5.60;;
13263;SDS011;6700;51.988;7.646;2023-06-05T01:29:53;9.30;;;6.67;;
13263;SDS011;6700;51.988;7.646;2023-06-05T01:35:20;6.63;;;5.00;;
13263;SDS011;6700;51.988;7.646;2023-06-05T01:37:54;8.23;;;5.20;;
13263;SDS011;6700;51.988;7.646;2023-06-05T01:40:25;8.00;;;5.30;;
13263;SDS011;6700;51.988;7.646;2023-06-05T01:42:53;7.13;;;5.43;;
13263;SDS011;6700;51.988;7.646;2023-06-05T01:45:21;6.83;;;5.57;;
13263;SDS011;6700;51.988;7.646;2023-06-05T01:47:48;7.87;;;5.90;;
13263;SDS011;6700;51.988;7.646;2023-06-05T01:50:16;6.23;;;5.63;;
13263;SDS011;6700;51.988;7.646;2023-06-05T01:52:44;6.87;;;5.97;;
13263;SDS011;6700;51.988;7.646;2023-06-05T01:55:17;8.20;;;6.43;;
13263;SDS011;6700;51.988;7.646;2023-06-05T01:57:50;7.40;;;6.57;;
13263;SDS011;6700;51.988;7.646;2023-06-05T02:00:17;7.03;;;6.20;;
13263;SDS011;6700;51.988;7.646;2023-06-05T02:02:47;6.80;;;6.10;;
13263;SDS011;6700;51.988;7.646;2023-06-05T02:05:15;6.80;;;6.10;;
13263;SDS011;6700;51.988;7.646;2023-06-05T02:07:46;7.53;;;6.10;;
13263;SDS011;6700;51.988;7.646;2023-06-05T02:10:20;8.90;;;6.17;;
13263;SDS011;6700;51.988;7.646;2023-06-05T02:12:47;9.17;;;6.77;;
13263;SDS011;6700;51.988;7.646;2023-06-05T02:15:14;7.50;;;6.30;;
13263;SDS011;6700;51.988;7.646;2023-06-05T02:17:42;6.83;;;5.90;;
13263;SDS011;6700;51.988;7.646;2023-06-05T02:20:24;10.17;;;6.87;;
13263;SDS011;6700;51.988;7.646;2023-06-05T02:22:51;7.63;;;6.50;;
13263;SDS011;6700;51.988;7.646;2023-06-05T02:25:18;10.43;;;7.07;;
13263;SDS011;6700;51.988;7.646;2023-06-05T02:27:45;7.27;;;6.47;;
13263;SDS011;6700;51.988;7.646;2023-06-05T02:30:12;8.53;;;6.83;;
13263;SDS011;6700;51.988;7.646;2023-06-05T02:32:39;7.73;;;6.90;;
13263;SDS011;6700;51.988;7.646;2023-06-05T02:35:13;7.37;;;6.67;;
13263;SDS011;6700;51.988;7.646;2023-06-05T02:37:40;9.50;;;6.87;;
13263;SDS011;6700;51.988;7.646;2023-06-05T02:40:12;8.20;;;6.93;;
13263;SDS011;6700;51.988;7.646;2023-06-05T02:42:40;11.33;;;7.80;;
13263;SDS011;6700;51.988;7.646;2023-06-05T02:45:07;8.77;;;7.03;;
13263;SDS011;6700;51.988;7.646;2023-06-05T02:47:35;7.80;;;6.63;;
13263;SDS011;6700;51.988;7.646;2023-06-05T02:50:02;7.90;;;7.20;;
13263;SDS011;6700;51.988;7.646;2023-06-05T02:52:29;10.87;;;7.70;;
13263;SDS011;6700;51.988;7.646;2023-06-05T02:55:01;7.43;;;6.40;;
13263;SDS011;6700;51.988;7.646;2023-06-05T02:57:31;10.53;;;8.13;;
13263;SDS011;6700;51.988;7.646;2023-06-05T02:59:59;9.87;;;7.27;;
13263;SDS011;6700;51.988;7.646;2023-06-05T03:02:28;9.67;;;7.47;;
13263;SDS011;6700;51.988;7.646;2023-06-05T03:04:55;10.70;;;7.83;;
13263;SDS011;6700;51.988;7.646;2023-06-05T03:07:22;12.17;;;7.97;;
13263;SDS011;6700;51.988;7.646;2023-06-05T03:09:51;8.93;;;7.60;;
13263;SDS011;6700;51.988;7.646;2023-06-05T03:12:18;9.13;;;7.33;;
13263;SDS011;6700;51.988;7.646;2023-06-05T03:14:45;9.50;;;7.73;;
13263;SDS011;6700;51.988;7.646;2023-06-05T03:17:11;11.23;;;8.87;;
13263;SDS011;6700;51.988;7.646;2023-06-05T03:19:38;10.10;;;8.40;;
13263;SDS011;6700;51.988;7.646;2023-06-05T03:22:06;11.40;;;7.63;;
13263;SDS011;6700;51.988;7.646;2023-06-05T03:24:32;10.67;;;8.50;;
13263;SDS011;6700;51.988;7.646;2023-06-05T03:27:03;8.63;;;7.83;;
13263;SDS011;6700;51.988;7.646;2023-06-05T03:29:30;9.03;;;7.90;;
13263;SDS011;6700;51.988;7.646;2023-06-05T03:31:57;8.93;;;7.57;;
13263;SDS011;6700;51.988;7.646;2023-06-05T03:34:24;10.63;;;8.10;;
13263;SDS011;6700;51.988;7.646;2023-06-05T03:36:52;10.97;;;8.57;;
13263;SDS011;6700;51.988;7.646;2023-06-05T03:39:19;10.83;;;8.10;;
13263;SDS011;6700;51.988;7.646;2023-06-05T03:41:46;12.53;;;8.37;;
13263;SDS011;6700;51.988;7.646;2023-06-05T03:44:12;10.17;;;8.80;;
13263;SDS011;6700;51.988;7.646;2023-06-05T03:46:39;10.87;;;8.27;;
13263;SDS011;6700;51.988;7.646;2023-06-05T03:49:06;9.67;;;8.03;;
13263;SDS011;6700;51.988;7.646;2023-06-05T03:51:35;12.67;;;8.13;;
13263;SDS011;6700;51.988;7.646;2023-06-05T03:54:02;10.13;;;7.77;;
13263;SDS011;6700;51.988;7.646;2023-06-05T03:56:29;9.90;;;8.83;;
13263;SDS011;6700;51.988;7.646;2023-06-05T03:59:09;13.07;;;8.47;;
13263;SDS011;6700;51.988;7.646;2023-06-05T04:01:45;9.27;;;8.03;;
13263;SDS011;6700;51.988;7.646;2023-06-05T04:04:12;9.90;;;8.77;;
13263;SDS011;6700;51.988;7.646;2023-06-05T04:06:38;11.83;;;9.30;;
13263;SDS011;6700;51.988;7.646;2023-06-05T04:09:06;11.30;;;8.43;;
13263;SDS011;6700;51.988;7.646;2023-06-05T04:11:41;11.80;;;8.83;;
13263;SDS011;6700;51.988;7.646;2023-06-05T04:14:10;13.37;;;8.00;;
13263;SDS011;6700;51.988;7.646;2023-06-05T04:16:37;8.93;;;8.03;;
13263;SDS011;6700;51.988;7.646;2023-06-05T04:19:06;14.53;;;9.43;;
13263;SDS011;6700;51.988;7.646;2023-06-05T04:21:33;14.30;;;8.67;;
13263;SDS011;6700;51.988;7.646;2023-06-05T04:24:02;14.03;;;9.37;;
13263;SDS011;6700;51.988;7.646;2023-06-05T04:26:39;11.87;;;8.67;;
13263;SDS011;6700;51.988;7.646;2023-06-05T04:29:09;10.93;;;9.37;;
13263;SDS011;6700;51.988;7.646;2023-06-05T04:31:43;13.13;;;9.07;;
13263;SDS011;6700;51.988;7.646;2023-06-05T04:34:12;11.90;;;9.10;;
13263;SDS011;6700;51.988;7.646;2023-06-05T04:36:39;11.40;;;9.77;;
13263;SDS011;6700;51.988;7.646;2023-06-05T04:39:07;10.93;;;9.70;;
13263;SDS011;6700;51.988;7.646;2023-06-05T04:41:44;11.37;;;9.70;;
13263;SDS011;6700;51.988;7.646;2023-06-05T04:44:19;13.47;;;9.40;;
13263;SDS011;6700;51.988;7.646;2023-06-05T04:46:46;12.80;;;9.63;;
13263;SDS011;6700;51.988;7.646;2023-06-05T04:49:15;12.73;;;10.00;;
13263;SDS011;6700;51.988;7.646;2023-06-05T04:51:42;12.43;;;9.67;;
13263;SDS011;6700;51.988;7.646;2023-06-05T04:54:10;11.40;;;10.10;;
13263;SDS011;6700;51.988;7.646;2023-06-05T04:56:38;15.37;;;10.20;;
13263;SDS011;6700;51.988;7.646;2023-06-05T04:59:07;12.73;;;9.47;;
13263;SDS011;6700;51.988;7.646;2023-06-05T05:01:34;16.33;;;9.87;;
13263;SDS011;6700;51.988;7.646;2023-06-05T05:04:01;11.07;;;9.23;;
13263;SDS011;6700;51.988;7.646;2023-06-05T05:06:28;14.40;;;10.60;;
13263;SDS011;6700;51.988;7.646;2023-06-05T05:08:55;12.57;;;9.67;;
13263;SDS011;6700;51.988;7.646;2023-06-05T05:11:22;12.50;;;10.27;;
13263;SDS011;6700;51.988;7.646;2023-06-05T05:13:49;11.10;;;9.97;;
13263;SDS011;6700;51.988;7.646;2023-06-05T05:16:15;13.40;;;10.07;;
13263;SDS011;6700;51.988;7.646;2023-06-05T05:18:43;13.20;;;10.13;;
13263;SDS011;6700;51.988;7.646;2023-06-05T05:21:11;18.40;;;11.33;;
13263;SDS011;6700;51.988;7.646;2023-06-05T05:23:38;12.70;;;8.97;;
13263;SDS011;6700;51.988;7.646;2023-06-05T05:26:04;13.63;;;10.20;;
13263;SDS011;6700;51.988;7.646;2023-06-05T05:28:33;12.03;;;10.37;;
13263;SDS011;6700;51.988;7.646;2023-06-05T05:30:59;12.97;;;9.90;;
13263;SDS011;6700;51.988;7.646;2023-06-05T05:33:27;14.00;;;9.53;;
13263;SDS011;6700;51.988;7.646;2023-06-05T05:35:53;12.60;;;10.33;;
13263;SDS011;6700;51.988;7.646;2023-06-05T05:38:21;11.63;;;9.63;;
13263;SDS011;6700;51.988;7.646;2023-06-05T05:40:47;14.37;;;10.27;;
13263;SDS011;6700;51.988;7.646;2023-06-05T05:43:18;12.23;;;9.43;;
13263;SDS011;6700;51.988;7.646;2023-06-05T05:45:45;13.10;;;10.03;;
13263;SDS011;6700;51.988;7.646;2023-06-05T05:48:11;15.17;;;10.70;;
13263;SDS011;6700;51.988;7.646;2023-06-05T05:50:39;16.17;;;9.67;;
13263;SDS011;6700;51.988;7.646;2023-06-05T05:53:06;14.43;;;10.50;;
13263;SDS011;6700;51.988;7.646;2023-06-05T05:55:33;16.37;;;10.50;;
13263;SDS011;6700;51.988;7.646;2023-06-05T05:58:00;14.87;;;10.43;;
13263;SDS011;6700;51.988;7.646;2023-06-05T06:00:27;17.90;;;10.20;;
13263;SDS011;6700;51.988;7.646;2023-06-05T06:02:54;13.47;;;10.57;;
13263;SDS011;6700;51.988;7.646;2023-06-05T06:05:21;11.83;;;10.60;;
13263;SDS011;6700;51.988;7.646;2023-06-05T06:07:48;13.73;;;9.87;;
13263;SDS011;6700;51.988;7.646;2023-06-05T06:10:15;12.17;;;10.10;;
13263;SDS011;6700;51.988;7.646;2023-06-05T06:12:43;15.00;;;10.20;;
13263;SDS011;6700;51.988;7.646;2023-06-05T06:15:11;14.10;;;9.97;;
13263;SDS011;6700;51.988;7.646;2023-06-05T06:17:38;11.40;;;9.63;;
13263;SDS011;6700;51.988;7.646;2023-06-05T06:20:06;14.80;;;10.47;;
13263;SDS011;6700;51.988;7.646;2023-06-05T06:22:35;14.30;;;10.53;;
13263;SDS011;6700;51.988;7.646;2023-06-05T06:27:43;13.37;;;9.90;;
13263;SDS011;6700;51.988;7.646;2023-06-05T06:30:14;17.77;;;10.50;;
13263;SDS011;6700;51.988;7.646;2023-06-05T06:32:41;15.63;;;9.73;;
13263;SDS011;6700;51.988;7.646;2023-06-05T06:35:08;14.07;;;10.33;;
13263;SDS011;6700;51.988;7.646;2023-06-05T06:37:35;14.93;;;9.70;;
13263;SDS011;6700;51.988;7.646;2023-06-05T06:40:03;13.20;;;9.90;;
13263;SDS011;6700;51.988;7.646;2023-06-05T06:42:35;15.60;;;9.50;;
13263;SDS011;6700;51.988;7.646;2023-06-05T06:45:03;11.50;;;8.90;;
13263;SDS011;6700;51.988;7.646;2023-06-05T06:47:30;12.93;;;8.37;;
13263;SDS011;6700;51.988;7.646;2023-06-05T06:49:57;12.43;;;9.13;;
13263;SDS011;6700;51.988;7.646;2023-06-05T06:52:24;13.63;;;9.77;;
13263;SDS011;6700;51.988;7.646;2023-06-05T06:54:51;15.03;;;10.07;;
13263;SDS011;6700;51.988;7.646;2023-06-05T06:57:18;11.97;;;9.33;;
13263;SDS011;6700;51.988;7.646;2023-06-05T06:59:45;10.47;;;8.00;;
13263;SDS011;6700;51.988;7.646;2023-06-05T07:02:12;11.23;;;7.50;;
13263;SDS011;6700;51.988;7.646;2023-06-05T07:04:42;12.80;;;7.80;;
13263;SDS011;6700;51.988;7.646;2023-06-05T07:07:10;12.20;;;7.77;;
13263;SDS011;6700;51.988;7.646;2023-06-05T07:09:39;10.13;;;8.37;;
13263;SDS011;6700;51.988;7.646;2023-06-05T07:12:10;9.10;;;8.10;;
13263;SDS011;6700;51.988;7.646;2023-06-05T07:14:39;8.27;;;7.43;;
13263;SDS011;6700;51.988;7.646;2023-06-05T07:17:06;8.67;;;7.70;;
13263;SDS011;6700;51.988;7.646;2023-06-05T07:19:33;12.00;;;8.60;;
13263;SDS011;6700;51.988;7.646;2023-06-05T07:22:03;9.93;;;8.00;;
13263;SDS011;6700;51.988;7.646;2023-06-05T07:24:34;9.23;;;7.17;;
13263;SDS011;6700;51.988;7.646;2023-06-05T07:27:02;9.33;;;8.03;;
13263;SDS011;6700;51.988;7.646;2023-06-05T07:29:29;10.37;;;7.03;;
13263;SDS011;6700;51.988;7.646;2023-06-05T07:31:57;8.57;;;7.03;;
13263;SDS011;6700;51.988;7.646;2023-06-05T07:34:25;11.03;;;7.67;;
13263;SDS011;6700;51.988;7.646;2023-06-05T07:36:52;9.60;;;6.83;;
13263;SDS011;6700;51.988;7.646;2023-06-05T07:39:20;12.63;;;7.50;;
13263;SDS011;6700;51.988;7.646;2023-06-05T07:41:48;12.53;;;7.73;;
13263;SDS011;6700;51.988;7.646;2023-06-05T07:44:15;13.50;;;8.50;;
13263;SDS011;6700;51.988;7.646;2023-06-05T07:46:44;15.03;;;8.17;;
13263;SDS011;6700;51.988;7.646;2023-06-05T07:49:13;14.17;;;7.60;;
13263;SDS011;6700;51.988;7.646;2023-06-05T07:51:40;8.20;;;6.23;;
13263;SDS011;6700;51.988;7.646;2023-06-05T07:54:09;9.88;;;6.15;;
13263;SDS011;6700;51.988;7.646;2023-06-05T07:56:37;14.63;;;7.55;;
13263;SDS011;6700;51.988;7.646;2023-06-05T07:59:05;10.27;;;5.97;;
13263;SDS011;6700;51.988;7.646;2023-06-05T08:01:33;9.85;;;6.30;;
13263;SDS011;6700;51.988;7.646;2023-06-05T08:04:04;11.82;;;6.72;;
13263;SDS011;6700;51.988;7.646;2023-06-05T08:06:33;9.10;;;5.93;;
13263;SDS011;6700;51.988;7.646;2023-06-05T08:09:04;8.73;;;7.18;;
13263;SDS011;6700;51.988;7.646;2023-06-05T08:11:31;11.07;;;7.15;;
13263;SDS011;6700;51.988;7.646;2023-06-05T08:13:57;9.32;;;6.25;;
13263;SDS011;6700;51.988;7.646;2023-06-05T08:16:25;8.38;;;6.22;;
13263;SDS011;6700;51.988;7.646;2023-06-05T08:18:51;7.80;;;6.00;;
13263;SDS011;6700;51.988;7.646;2023-06-05T08:21:18;9.20;;;7.03;;
13263;SDS011;6700;51.988;7.646;2023-06-05T08:23:45;8.63;;;6.70;;
13263;SDS011;6700;51.988;7.646;2023-06-05T08:26:12;10.10;;;7.07;;
13263;SDS011;6700;51.988;7.646;2023-06-05T08:28:39;7.22;;;6.50;;
13263;SDS011;6700;51.988;7.646;2023-06-05T08:31:07;9.32;;;6.55;;
13263;SDS011;6700;51.988;7.646;2023-06-05T08:33:36;7.70;;;6.28;;
13263;SDS011;6700;51.988;7.646;2023-06-05T08:36:04;8.95;;;5.97;;
13263;SDS011;6700;51.988;7.646;2023-06-05T08:38:31;6.63;;;5.82;;
13263;SDS011;6700;51.988;7.646;2023-06-05T08:41:00;7.50;;;5.97;;
13263;SDS011;6700;51.988;7.646;2023-06-05T08:43:28;8.23;;;6.28;;
13263;SDS011;6700;51.988;7.646;2023-06-05T08:45:56;8.57;;;6.28;;
13263;SDS011;6700;51.988;7.646;2023-06-05T08:48:24;6.32;;;5.60;;
13263;SDS011;6700;51.988;7.646;2023-06-05T08:50:51;10.45;;;6.00;;
13263;SDS011;6700;51.988;7.646;2023-06-05T08:53:21;6.68;;;5.65;;
13263;SDS011;6700;51.988;7.646;2023-06-05T08:55:54;7.68;;;6.90;;
13263;SDS011;6700;51.988;7.646;2023-06-05T08:58:22;12.05;;;6.22;;
13263;SDS011;6700;51.988;7.646;2023-06-05T09:00:50;6.25;;;5.65;;
13263;SDS011;6700;51.988;7.646;2023-06-05T09:03:18;7.82;;;5.95;;
13263;SDS011;6700;51.988;7.646;2023-06-05T09:05:46;8.15;;;6.03;;
13263;SDS011;6700;51.988;7.646;2023-06-05T09:08:15;8.70;;;6.25;;
13263;SDS011;6700;51.988;7.646;2023-06-05T09:10:43;6.45;;;5.85;;
13263;SDS011;6700;51.988;7.646;2023-06-05T09:13:10;8.52;;;5.82;;
13263;SDS011;6700;51.988;7.646;2023-06-05T09:15:37;6.93;;;6.30;;
13263;SDS011;6700;51.988;7.646;2023-06-05T09:18:05;7.22;;;5.60;;
13263;SDS011;6700;51.988;7.646;2023-06-05T09:20:35;8.15;;;5.75;;
13263;SDS011;6700;51.988;7.646;2023-06-05T09:23:26;6.88;;;5.40;;
13263;SDS011;6700;51.988;7.646;2023-06-05T09:25:59;7.68;;;6.55;;
13263;SDS011;6700;51.988;7.646;2023-06-05T09:28:28;9.02;;;7.00;;
13263;SDS011;6700;51.988;7.646;2023-06-05T09:31:01;6.30;;;5.70;;
13263;SDS011;6700;51.988;7.646;2023-06-05T09:33:30;10.30;;;6.43;;
13263;SDS011;6700;51.988;7.646;2023-06-05T09:38:31;8.90;;;6.03;;
13263;SDS011;6700;51.988;7.646;2023-06-05T09:41:02;8.38;;;6.88;;
13263;SDS011;6700;51.988;7.646;2023-06-05T09:43:32;9.00;;;6.63;;
13263;SDS011;6700;51.988;7.646;2023-06-05T09:46:12;13.30;;;6.43;;
13263;SDS011;6700;51.988;7.646;2023-06-05T09:48:41;8.98;;;6.55;;
13263;SDS011;6700;51.988;7.646;2023-06-05T09:53:46;9.57;;;5.70;;
13263;SDS011;6700;51.988;7.646;2023-06-05T09:56:15;6.35;;;5.20;;
13263;SDS011;6700;51.988;7.646;2023-06-05T09:58:49;7.10;;;6.28;;
13263;SDS011;6700;51.988;7.646;2023-06-05T10:01:21;6.95;;;5.93;;
13263;SDS011;6700;51.988;7.646;2023-06-05T10:04:05;6.75;;;4.95;;
13263;SDS011;6700;51.988;7.646;2023-06-05T10:06:34;6.97;;;5.75;;
13263;SDS011;6700;51.988;7.646;2023-06-05T10:09:01;6.30;;;5.35;;
13263;SDS011;6700;51.988;7.646;2023-06-05T10:11:29;9.30;;;5.63;;
13263;SDS011;6700;51.988;7.646;2023-06-05T10:13:56;8.93;;;4.72;;
13263;SDS011;6700;51.988;7.646;2023-06-05T10:16:27;6.60;;;5.50;;
13263;SDS011;6700;51.988;7.646;2023-06-05T10:18:55;6.38;;;5.38;;
13263;SDS011;6700;51.988;7.646;2023-06-05T10:21:23;8.02;;;5.35;;
13263;SDS011;6700;51.988;7.646;2023-06-05T10:26:27;7.43;;;4.50;;
13263;SDS011;6700;51.988;7.646;2023-06-05T10:29:07;6.93;;;4.95;;
13263;SDS011;6700;51.988;7.646;2023-06-05T10:31:45;6.13;;;4.95;;
13263;SDS011;6700;51.988;7.646;2023-06-05T10:36:53;8.32;;;5.03;;
13263;SDS011;6700;51.988;7.646;2023-06-05T10:39:26;6.03;;;4.60;;
13263;SDS011;6700;51.988;7.646;2023-06-05T10:41:55;6.78;;;5.07;;
13263;SDS011;6700;51.988;7.646;2023-06-05T10:44:41;5.90;;;4.47;;
13263;SDS011;6700;51.988;7.646;2023-06-05T10:52:48;6.90;;;4.60;;
13263;SDS011;6700;51.988;7.646;2023-06-05T10:55:15;7.30;;;4.45;;
13263;SDS011;6700;51.988;7.646;2023-06-05T11:00:23;7.68;;;4.82;;
13263;SDS011;6700;51.988;7.646;2023-06-05T11:02:51;7.13;;;4.38;;
13263;SDS011;6700;51.988;7.646;2023-06-05T11:05:19;5.95;;;4.47;;
13263;SDS011;6700;51.988;7.646;2023-06-05T11:07:47;7.50;;;4.43;;
13263;SDS011;6700;51.988;7.646;2023-06-05T11:10:17;5.38;;;4.45;;
13263;SDS011;6700;51.988;7.646;2023-06-05T11:17:48;7.22;;;4.18;;
13263;SDS011;6700;51.988;7.646;2023-06-05T11:27:57;8.02;;;4.70;;
13263;SDS011;6700;51.988;7.646;2023-06-05T11:30:27;6.78;;;4.45;;
13263;SDS011;6700;51.988;7.646;2023-06-05T11:33:13;6.35;;;3.97;;
13263;SDS011;6700;51.988;7.646;2023-06-05T11:35:42;4.95;;;4.20;;
13263;SDS011;6700;51.988;7.646;2023-06-05T11:38:14;7.53;;;4.35;;
13263;SDS011;6700;51.988;7.646;2023-06-05T11:40:44;7.10;;;4.30;;
13263;SDS011;6700;51.988;7.646;2023-06-05T11:43:12;10.88;;;3.90;;
13263;SDS011;6700;51.988;7.646;2023-06-05T11:45:40;4.40;;;3.60;;
13263;SDS011;6700;51.988;7.646;2023-06-05T11:48:11;4.57;;;3.38;;
13263;SDS011;6700;51.988;7.646;2023-06-05T11:51:23;6.45;;;3.25;;
13263;SDS011;6700;51.988;7.646;2023-06-05T11:53:26;8.90;;;3.92;;
13263;SDS011;6700;51.988;7.646;2023-06-05T11:55:53;6.65;;;3.60;;
13263;SDS011;6700;51.988;7.646;2023-06-05T11:58:33;6.47;;;3.53;;
13263;SDS011;6700;51.988;7.646;2023-06-05T12:03:32;5.53;;;3.40;;
13263;SDS011;6700;51.988;7.646;2023-06-05T12:06:00;4.32;;;3.00;;
13263;SDS011;6700;51.988;7.646;2023-06-05T12:08:31;10.77;;;4.78;;
13263;SDS011;6700;51.988;7.646;2023-06-05T12:11:00;4.95;;;2.78;;
13263;SDS011;6700;51.988;7.646;2023-06-05T12:13:46;4.15;;;2.85;;
13263;SDS011;6700;51.988;7.646;2023-06-05T12:16:13;3.97;;;2.95;;
13263;SDS011;6700;51.988;7.646;2023-06-05T12:18:41;3.20;;;2.90;;
13263;SDS011;6700;51.988;7.646;2023-06-05T12:21:18;5.13;;;3.05;;
13263;SDS011;6700;51.988;7.646;2023-06-05T12:23:46;4.63;;;2.50;;
13263;SDS011;6700;51.988;7.646;2023-06-05T12:26:14;7.95;;;2.75;;
13263;SDS011;6700;51.988;7.646;2023-06-05T12:28:42;7.05;;;2.70;;
13263;SDS011;6700;51.988;7.646;2023-06-05T12:31:11;3.22;;;2.78;;
13263;SDS011;6700;51.988;7.646;2023-06-05T12:33:56;3.10;;;2.65;;
13263;SDS011;6700;51.988;7.646;2023-06-05T12:36:23;3.63;;;2.50;;
13263;SDS011;6700;51.988;7.646;2023-06-05T12:38:50;3.50;;;2.40;;
13263;SDS011;6700;51.988;7.646;2023-06-05T12:41:17;4.93;;;2.83;;
13263;SDS011;6700;51.988;7.646;2023-06-05T12:43:44;7.68;;;2.80;;
13263;SDS011;6700;51.988;7.646;2023-06-05T12:46:12;3.53;;;2.35;;
13263;SDS011;6700;51.988;7.646;2023-06-05T12:48:39;4.97;;;2.90;;
13263;SDS011;6700;51.988;7.646;2023-06-05T12:51:07;2.83;;;2.45;;
13263;SDS011;6700;51.988;7.646;2023-06-05T12:53:34;7.22;;;3.55;;
13263;SDS011;6700;51.988;7.646;2023-06-05T12:56:02;3.63;;;2.50;;
13263;SDS011;6700;51.988;7.646;2023-06-05T12:58:29;3.97;;;2.78;;
13263;SDS011;6700;51.988;7.646;2023-06-05T13:00:56;3.30;;;2.45;;
13263;SDS011;6700;51.988;7.646;2023-06-05T13:03:23;3.22;;;2.65;;
13263;SDS011;6700;51.988;7.646;2023-06-05T13:05:51;3.13;;;2.40;;
13263;SDS011;6700;51.988;7.646;2023-06-05T13:08:18;5.07;;;2.95;;
13263;SDS011;6700;51.988;7.646;2023-06-05T13:10:45;3.92;;;2.92;;
13263;SDS011;6700;51.988;7.646;2023-06-05T13:13:12;4.75;;;2.90;;
13263;SDS011;6700;51.988;7.646;2023-06-05T13:15:42;6.63;;;3.17;;
13263;SDS011;6700;51.988;7.646;2023-06-05T13:18:09;3.13;;;2.63;;
13263;SDS011;6700;51.988;7.646;2023-06-05T13:20:37;4.03;;;2.50;;
13263;SDS011;6700;51.988;7.646;2023-06-05T13:23:04;2.78;;;2.55;;
13263;SDS011;6700;51.988;7.646;2023-06-05T13:25:32;3.50;;;2.60;;
13263;SDS011;6700;51.988;7.646;2023-06-05T13:28:00;8.00;;;2.60;;
13263;SDS011;6700;51.988;7.646;2023-06-05T13:30:27;7.72;;;2.80;;
13263;SDS011;6700;51.988;7.646;2023-06-05T13:32:54;2.92;;;2.63;;
13263;SDS011;6700;51.988;7.646;2023-06-05T13:35:22;4.68;;;2.40;;
13263;SDS011;6700;51.988;7.646;2023-06-05T13:37:49;2.67;;;2.40;;
13263;SDS011;6700;51.988;7.646;2023-06-05T13:40:18;5.63;;;3.10;;
13263;SDS011;6700;51.988;7.646;2023-06-05T13:42:45;4.05;;;2.42;;
13263;SDS011;6700;51.988;7.646;2023-06-05T13:45:13;3.67;;;2.60;;
13263;SDS011;6700;51.988;7.646;2023-06-05T13:47:41;3.30;;;2.50;;
13263;SDS011;6700;51.988;7.646;2023-06-05T13:50:08;6.78;;;2.60;;
13263;SDS011;6700;51.988;7.646;2023-06-05T13:52:35;4.22;;;2.60;;
13263;SDS011;6700;51.988;7.646;2023-06-05T13:55:03;2.55;;;2.30;;
13263;SDS011;6700;51.988;7.646;2023-06-05T13:57:31;3.20;;;2.33;;
13263;SDS011;6700;51.988;7.646;2023-06-05T13:59:58;4.90;;;2.67;;
13263;SDS011;6700;51.988;7.646;2023-06-05T14:02:25;2.40;;;1.90;;
13263;SDS011;6700;51.988;7.646;2023-06-05T14:04:53;2.70;;;2.50;;
13263;SDS011;6700;51.988;7.646;2023-06-05T14:07:20;2.42;;;2.22;;
13263;SDS011;6700;51.988;7.646;2023-06-05T14:09:47;2.83;;;2.33;;
13263;SDS011;6700;51.988;7.646;2023-06-05T14:12:14;2.60;;;2.40;;
13263;SDS011;6700;51.988;7.646;2023-06-05T14:14:42;2.90;;;2.30;;
13263;SDS011;6700;51.988;7.646;2023-06-05T14:17:10;6.57;;;2.50;;
13263;SDS011;6700;51.988;7.646;2023-06-05T14:19:37;4.50;;;3.13;;
13263;SDS011;6700;51.988;7.646;2023-06-05T14:22:04;2.78;;;2.28;;
13263;SDS011;6700;51.988;7.646;2023-06-05T14:24:32;4.68;;;2.40;;
13263;SDS011;6700;51.988;7.646;2023-06-05T14:26:59;6.05;;;2.83;;
13263;SDS011;6700;51.988;7.646;2023-06-05T14:29:26;9.05;;;3.08;;
13263;SDS011;6700;51.988;7.646;2023-06-05T14:31:53;2.80;;;2.58;;
13263;SDS011;6700;51.988;7.646;2023-06-05T14:34:20;3.13;;;2.83;;
13263;SDS011;6700;51.988;7.646;2023-06-05T14:36:48;4.32;;;2.33;;
13263;SDS011;6700;51.988;7.646;2023-06-05T14:39:18;3.72;;;2.58;;
13263;SDS011;6700;51.988;7.646;2023-06-05T14:41:47;2.78;;;2.50;;
13263;SDS011;6700;51.988;7.646;2023-06-05T14:44:14;2.63;;;2.42;;
13263;SDS011;6700;51.988;7.646;2023-06-05T14:46:48;4.03;;;2.20;;
13263;SDS011;6700;51.988;7.646;2023-06-05T14:49:16;4.07;;;2.50;;
13263;SDS011;6700;51.988;7.646;2023-06-05T14:51:44;3.45;;;2.20;;
13263;SDS011;6700;51.988;7.646;2023-06-05T14:54:12;3.75;;;2.35;;
13263;SDS011;6700;51.988;7.646;2023-06-05T14:56:40;5.40;;;2.60;;
13263;SDS011;6700;51.988;7.646;2023-06-05T14:59:07;2.70;;;2.40;;
13263;SDS011;6700;51.988;7.646;2023-06-05T15:01:51;2.60;;;2.40;;
13263;SDS011;6700;51.988;7.646;2023-06-05T15:04:19;2.90;;;2.70;;
13263;SDS011;6700;51.988;7.646;2023-06-05T15:06:47;4.90;;;2.65;;
13263;SDS011;6700;51.988;7.646;2023-06-05T15:09:17;3.95;;;2.63;;
13263;SDS011;6700;51.988;7.646;2023-06-05T15:11:44;11.10;;;3.30;;
13263;SDS011;6700;51.988;7.646;2023-06-05T15:14:12;4.72;;;2.60;;
13263;SDS011;6700;51.988;7.646;2023-06-05T15:16:39;2.80;;;2.50;;
13263;SDS011;6700;51.988;7.646;2023-06-05T15:19:08;4.63;;;2.45;;
13263;SDS011;6700;51.988;7.646;2023-06-05T15:21:36;7.05;;;2.58;;
13263;SDS011;6700;51.988;7.646;2023-06-05T15:24:03;6.25;;;2.60;;
13263;SDS011;6700;51.988;7.646;2023-06-05T15:26:32;3.42;;;2.65;;
13263;SDS011;6700;51.988;7.646;2023-06-05T15:28:59;3.20;;;2.38;;
13263;SDS011;6700;51.988;7.646;2023-06-05T15:31:26;3.65;;;2.38;;
13263;SDS011;6700;51.988;7.646;2023-06-05T15:33:54;6.03;;;2.53;;
13263;SDS011;6700;51.988;7.646;2023-06-05T15:36:21;2.30;;;2.10;;
13263;SDS011;6700;51.988;7.646;2023-06-05T15:38:49;2.70;;;2.47;;
13263;SDS011;6700;51.988;7.646;2023-06-05T15:41:16;4.47;;;2.53;;
13263;SDS011;6700;51.988;7.646;2023-06-05T15:43:44;4.53;;;2.70;;
13263;SDS011;6700;51.988;7.646;2023-06-05T15:46:11;4.00;;;2.42;;